createdAt,value
2017-03-08T00:00:57.585Z,1017.24
2017-03-08T00:02:07.026Z,1017.22
2017-03-08T00:03:16.880Z,1017.21
2017-03-08T00:04:25.590Z,1017.24
2017-03-08T00:05:34.670Z,1017.26
2017-03-08T00:06:43.737Z,1017.27
2017-03-08T00:07:53.199Z,1017.3
2017-03-08T00:09:02.639Z,1017.35
2017-03-08T00:10:12.477Z,1017.38
2017-03-08T00:11:21.556Z,1017.4
2017-03-08T00:12:30.638Z,1017.34
2017-03-08T00:13:40.870Z,1017.33
2017-03-08T00:14:50.315Z,1017.32
2017-03-08T00:15:59.387Z,1017.27
2017-03-08T00:17:08.454Z,1017.26
2017-03-08T00:18:17.139Z,1017.24
2017-03-08T00:19:26.595Z,1017.23
2017-03-08T00:20:36.446Z,1017.24
2017-03-08T00:21:45.911Z,1017.29
2017-03-08T00:22:54.981Z,1017.3
2017-03-08T00:24:04.424Z,1017.3
2017-03-08T00:25:13.911Z,1017.32
2017-03-08T00:26:22.982Z,1017.32
2017-03-08T00:27:32.439Z,1017.26
2017-03-08T00:28:42.288Z,1017.29
2017-03-08T00:29:52.122Z,1017.26
2017-03-08T00:31:01.190Z,1017.23
2017-03-08T00:32:10.255Z,1017.15
2017-03-08T00:33:20.101Z,1017.11
2017-03-08T00:34:29.193Z,1017.12
2017-03-08T00:35:39.057Z,1017.13
2017-03-08T00:36:48.886Z,1017.08
2017-03-08T00:37:57.980Z,1017.06
2017-03-08T00:39:07.061Z,1017.13
2017-03-08T00:40:16.892Z,1017.1
2017-03-08T00:41:26.010Z,1017.14
2017-03-08T00:42:36.230Z,1017.2
2017-03-08T00:43:45.681Z,1017.22
2017-03-08T00:44:55.126Z,1017.14
2017-03-08T00:46:04.954Z,1017.16
2017-03-08T00:47:14.036Z,1017.2
2017-03-08T00:48:23.867Z,1017.2
2017-03-08T00:49:33.309Z,1017.2
2017-03-08T00:50:42.765Z,1017.21
2017-03-08T00:51:52.203Z,1017.18
2017-03-08T00:53:02.034Z,1017.25
2017-03-08T00:54:10.743Z,1017.21
2017-03-08T00:55:20.209Z,1017.2
2017-03-08T00:56:29.288Z,1017.25
2017-03-08T00:57:39.108Z,1017.31
2017-03-08T00:58:48.950Z,1017.32
2017-03-08T00:59:58.398Z,1017.34
2017-03-08T01:01:07.099Z,1017.34
2017-03-08T01:02:16.933Z,1017.41
2017-03-08T01:03:27.186Z,1017.34
2017-03-08T01:04:37.007Z,1017.34
2017-03-08T01:05:46.462Z,1017.31
2017-03-08T01:06:55.919Z,1017.34
2017-03-08T01:08:05.368Z,1017.26
2017-03-08T01:09:14.822Z,1017.17
2017-03-08T01:10:24.653Z,1017.17
2017-03-08T01:11:34.100Z,1017.11
2017-03-08T01:12:43.922Z,1017.1
2017-03-08T01:13:53.018Z,1017.15
2017-03-08T01:15:02.491Z,1017.15
2017-03-08T01:16:11.967Z,1017.14
2017-03-08T01:17:21.419Z,1017.17
2017-03-08T01:18:30.880Z,1017.19
2017-03-08T01:19:39.987Z,1017.17
2017-03-08T01:20:49.062Z,1017.1
2017-03-08T01:21:58.903Z,1017.14
2017-03-08T01:23:07.967Z,1017.19
2017-03-08T01:24:16.677Z,1017.13
2017-03-08T01:25:25.753Z,1017.16
2017-03-08T01:26:35.216Z,1017.19
2017-03-08T01:27:44.668Z,1017.13
2017-03-08T01:28:53.740Z,1017.14
2017-03-08T01:30:02.811Z,1017.19
2017-03-08T01:31:11.886Z,1017.13
2017-03-08T01:32:20.995Z,1017.19
2017-03-08T01:33:30.090Z,1017.21
2017-03-08T01:34:39.574Z,1017.17
2017-03-08T01:35:48.641Z,1017.19
2017-03-08T01:36:58.112Z,1017.14
2017-03-08T01:38:07.181Z,1017.09
2017-03-08T01:39:15.878Z,1017.07
2017-03-08T01:40:25.698Z,1017.09
2017-03-08T01:41:35.554Z,1017.04
2017-03-08T01:42:44.630Z,1017.04
2017-03-08T01:43:54.461Z,1017.09
2017-03-08T01:45:03.929Z,1017.05
2017-03-08T01:46:13.009Z,1017.05
2017-03-08T01:47:22.480Z,1017.04
2017-03-08T01:48:31.186Z,1017.02
2017-03-08T01:49:40.267Z,1017.04
2017-03-08T01:50:49.715Z,1017.07
2017-03-08T01:51:58.769Z,1017.05
2017-03-08T01:53:07.856Z,1017.01
2017-03-08T01:54:17.310Z,1016.95
2017-03-08T01:55:26.368Z,1016.95
2017-03-08T01:56:36.227Z,1016.97
2017-03-08T01:57:46.062Z,1016.99
2017-03-08T01:58:55.931Z,1016.96
2017-03-08T02:00:05.386Z,1016.94
2017-03-08T02:01:14.469Z,1016.98
2017-03-08T02:02:23.538Z,1017.03
2017-03-08T02:03:33.837Z,1017.12
2017-03-08T02:04:43.319Z,1017.05
2017-03-08T02:05:52.774Z,1017.04
2017-03-08T02:07:02.612Z,1017.02
2017-03-08T02:08:11.687Z,1016.98
2017-03-08T02:09:21.161Z,1017
2017-03-08T02:10:29.831Z,1016.94
2017-03-08T02:11:38.511Z,1016.92
2017-03-08T02:12:47.198Z,1016.92
2017-03-08T02:13:57.039Z,1016.86
2017-03-08T02:15:06.877Z,1016.83
2017-03-08T02:16:15.574Z,1016.79
2017-03-08T02:17:24.256Z,1016.76
2017-03-08T02:18:33.328Z,1016.71
2017-03-08T02:19:42.772Z,1016.7
2017-03-08T02:20:52.226Z,1016.7
2017-03-08T02:22:01.295Z,1016.64
2017-03-08T02:23:11.143Z,1016.62
2017-03-08T02:24:20.219Z,1016.56
2017-03-08T02:25:29.677Z,1016.61
2017-03-08T02:26:38.733Z,1016.64
2017-03-08T02:27:48.215Z,1016.56
2017-03-08T02:28:57.678Z,1016.56
2017-03-08T02:30:07.125Z,1016.59
2017-03-08T02:31:17.347Z,1016.6
2017-03-08T02:32:27.184Z,1016.58
2017-03-08T02:33:37.044Z,1016.6
2017-03-08T02:34:46.496Z,1016.6
2017-03-08T02:35:56.328Z,1016.56
2017-03-08T02:37:06.165Z,1016.52
2017-03-08T02:38:16.003Z,1016.58
2017-03-08T02:39:25.067Z,1016.59
2017-03-08T02:40:34.529Z,1016.57
2017-03-08T02:41:43.983Z,1016.63
2017-03-08T02:42:53.049Z,1016.6
2017-03-08T02:44:02.518Z,1016.57
2017-03-08T02:45:11.983Z,1016.6
2017-03-08T02:46:22.201Z,1016.57
2017-03-08T02:47:31.303Z,1016.56
2017-03-08T02:48:40.764Z,1016.61
2017-03-08T02:49:50.204Z,1016.56
2017-03-08T02:50:59.293Z,1016.61
2017-03-08T02:52:09.139Z,1016.59
2017-03-08T02:53:18.209Z,1016.58
2017-03-08T02:54:28.069Z,1016.63
2017-03-08T02:55:37.531Z,1016.56
2017-03-08T02:56:46.586Z,1016.53
2017-03-08T02:57:56.051Z,1016.51
2017-03-08T02:59:05.495Z,1016.5
2017-03-08T03:00:14.976Z,1016.54
2017-03-08T03:01:24.435Z,1016.46
2017-03-08T03:02:33.889Z,1016.47
2017-03-08T03:03:43.327Z,1016.47
2017-03-08T03:04:52.767Z,1016.5
2017-03-08T03:06:02.219Z,1016.52
2017-03-08T03:07:11.297Z,1016.52
2017-03-08T03:08:20.366Z,1016.53
2017-03-08T03:09:29.452Z,1016.52
2017-03-08T03:10:39.287Z,1016.53
2017-03-08T03:11:47.988Z,1016.44
2017-03-08T03:12:57.829Z,1016.42
2017-03-08T03:14:08.041Z,1016.41
2017-03-08T03:15:17.905Z,1016.4
2017-03-08T03:16:27.745Z,1016.35
2017-03-08T03:17:36.813Z,1016.31
2017-03-08T03:18:46.271Z,1016.37
2017-03-08T03:19:55.341Z,1016.38
2017-03-08T03:21:04.797Z,1016.39
2017-03-08T03:22:14.624Z,1016.44
2017-03-08T03:23:23.706Z,1016.44
2017-03-08T03:24:33.168Z,1016.37
2017-03-08T03:25:42.240Z,1016.29
2017-03-08T03:26:51.691Z,1016.25
2017-03-08T03:28:01.150Z,1016.24
2017-03-08T03:29:10.604Z,1016.21
2017-03-08T03:30:20.455Z,1016.19
2017-03-08T03:31:29.145Z,1016.17
2017-03-08T03:32:38.591Z,1016.2
2017-03-08T03:33:48.052Z,1016.15
2017-03-08T03:34:56.734Z,1016.15
2017-03-08T03:36:05.838Z,1016.14
2017-03-08T03:37:15.305Z,1016.13
2017-03-08T03:38:24.824Z,1016.16
2017-03-08T03:39:34.649Z,1016.1
2017-03-08T03:40:43.333Z,1016.11
2017-03-08T03:41:52.829Z,1016.12
2017-03-08T03:43:03.057Z,1016.1
2017-03-08T03:44:11.816Z,1016.14
2017-03-08T03:45:20.888Z,1016.15
2017-03-08T03:46:31.118Z,1016.06
2017-03-08T03:47:40.259Z,1016.1
2017-03-08T03:48:49.332Z,1016.04
2017-03-08T03:49:59.238Z,1015.99
2017-03-08T03:51:08.740Z,1015.88
2017-03-08T03:52:17.907Z,1015.87
2017-03-08T03:53:27.034Z,1015.81
2017-03-08T03:54:36.896Z,1015.77
2017-03-08T03:55:46.385Z,1015.79
2017-03-08T03:56:55.640Z,1015.75
2017-03-08T03:58:05.483Z,1015.69
2017-03-08T03:59:15.710Z,1015.74
2017-03-08T04:00:24.783Z,1015.61
2017-03-08T04:01:34.325Z,1015.58
2017-03-08T04:02:44.175Z,1015.59
2017-03-08T04:03:52.867Z,1015.59
2017-03-08T04:05:02.769Z,1015.52
2017-03-08T04:06:11.507Z,1015.47
2017-03-08T04:07:21.402Z,1015.48
2017-03-08T04:08:30.549Z,1015.42
2017-03-08T04:09:39.317Z,1015.39
2017-03-08T04:10:48.775Z,1015.4
2017-03-08T04:11:58.651Z,1015.34
2017-03-08T04:13:07.742Z,1015.26
2017-03-08T04:14:17.650Z,1015.22
2017-03-08T04:15:26.823Z,1015.21
2017-03-08T04:16:35.880Z,1015.27
2017-03-08T04:17:46.135Z,1015.28
2017-03-08T04:18:55.620Z,1015.19
2017-03-08T04:20:05.082Z,1015.18
2017-03-08T04:21:14.203Z,1015.16
2017-03-08T04:22:23.286Z,1015.18
2017-03-08T04:23:32.355Z,1015.04
2017-03-08T04:24:41.427Z,1015.11
2017-03-08T04:25:50.497Z,1015
2017-03-08T04:26:59.955Z,1014.98
2017-03-08T04:28:09.465Z,1015.01
2017-03-08T04:29:18.554Z,1014.98
2017-03-08T04:30:27.260Z,1015.01
2017-03-08T04:31:36.760Z,1014.87
2017-03-08T04:32:45.859Z,1014.96
2017-03-08T04:33:54.973Z,1015
2017-03-08T04:35:04.447Z,1014.98
2017-03-08T04:36:13.548Z,1014.99
2017-03-08T04:37:23.386Z,1015.08
2017-03-08T04:38:32.833Z,1015.1
2017-03-08T04:39:41.946Z,1015.16
2017-03-08T04:40:51.011Z,1015.24
2017-03-08T04:42:00.472Z,1015.29
2017-03-08T04:43:09.191Z,1015.27
2017-03-08T04:44:18.258Z,1015.28
2017-03-08T04:45:28.114Z,1015.32
2017-03-08T04:46:38.704Z,1015.34
2017-03-08T04:47:48.610Z,1015.34
2017-03-08T04:48:57.368Z,1015.37
2017-03-08T04:50:07.775Z,1015.41
2017-03-08T04:51:18.027Z,1015.36
2017-03-08T04:52:27.138Z,1015.37
2017-03-08T04:53:36.230Z,1015.4
2017-03-08T04:54:44.940Z,1015.37
2017-03-08T04:55:54.019Z,1015.38
2017-03-08T04:57:03.934Z,1015.41
2017-03-08T04:58:13.074Z,1015.4
2017-03-08T04:59:22.148Z,1015.49
2017-03-08T05:00:31.634Z,1015.46
2017-03-08T05:01:41.550Z,1015.44
2017-03-08T05:02:50.313Z,1015.42
2017-03-08T05:03:59.822Z,1015.45
2017-03-08T05:05:09.639Z,1015.45
2017-03-08T05:06:19.110Z,1015.49
2017-03-08T05:07:28.625Z,1015.47
2017-03-08T05:08:38.080Z,1015.44
2017-03-08T05:09:47.143Z,1015.52
2017-03-08T05:10:56.700Z,1015.45
2017-03-08T05:12:06.986Z,1015.48
2017-03-08T05:13:16.053Z,1015.47
2017-03-08T05:14:25.195Z,1015.46
2017-03-08T05:15:34.258Z,1015.47
2017-03-08T05:16:44.108Z,1015.44
2017-03-08T05:17:53.179Z,1015.5
2017-03-08T05:19:02.248Z,1015.54
2017-03-08T05:20:11.481Z,1015.59
2017-03-08T05:21:20.951Z,1015.59
2017-03-08T05:22:30.027Z,1015.61
2017-03-08T05:23:40.368Z,1015.59
2017-03-08T05:24:49.112Z,1015.6
2017-03-08T05:25:58.644Z,1015.6
2017-03-08T05:27:07.763Z,1015.67
2017-03-08T05:28:16.844Z,1015.63
2017-03-08T05:29:26.328Z,1015.55
2017-03-08T05:30:35.398Z,1015.55
2017-03-08T05:31:45.647Z,1015.55
2017-03-08T05:32:55.596Z,1015.57
2017-03-08T05:34:05.886Z,1015.58
2017-03-08T05:35:14.583Z,1015.54
2017-03-08T05:36:24.081Z,1015.58
2017-03-08T05:37:33.523Z,1015.47
2017-03-08T05:38:42.233Z,1015.49
2017-03-08T05:39:51.705Z,1015.52
2017-03-08T05:41:01.593Z,1015.5
2017-03-08T05:42:11.800Z,1015.49
2017-03-08T05:43:21.266Z,1015.49
2017-03-08T05:44:31.127Z,1015.44
2017-03-08T05:45:40.572Z,1015.39
2017-03-08T05:46:50.045Z,1015.38
2017-03-08T05:47:59.541Z,1015.33
2017-03-08T05:49:09.786Z,1015.31
2017-03-08T05:50:18.471Z,1015.28
2017-03-08T05:51:28.314Z,1015.24
2017-03-08T05:52:37.385Z,1015.21
2017-03-08T05:53:46.450Z,1015.24
2017-03-08T05:54:55.165Z,1015.26
2017-03-08T05:56:04.258Z,1015.24
2017-03-08T05:57:13.717Z,1015.32
2017-03-08T05:58:22.790Z,1015.41
2017-03-08T05:59:32.243Z,1015.41
2017-03-08T06:00:42.108Z,1015.37
2017-03-08T06:01:51.558Z,1015.35
2017-03-08T06:03:00.663Z,1015.3
2017-03-08T06:04:10.166Z,1015.35
2017-03-08T06:05:19.297Z,1015.33
2017-03-08T06:06:28.003Z,1015.25
2017-03-08T06:07:37.520Z,1015.34
2017-03-08T06:08:46.639Z,1015.38
2017-03-08T06:09:56.075Z,1015.29
2017-03-08T06:11:05.551Z,1015.32
2017-03-08T06:12:14.733Z,1015.28
2017-03-08T06:13:24.266Z,1015.23
2017-03-08T06:14:33.761Z,1015.18
2017-03-08T06:15:43.256Z,1015.15
2017-03-08T06:16:51.985Z,1015.1
2017-03-08T06:18:01.865Z,1015.11
2017-03-08T06:19:10.959Z,1015.06
2017-03-08T06:20:20.460Z,1015.06
2017-03-08T06:21:29.539Z,1015.04
2017-03-08T06:22:38.240Z,1015.01
2017-03-08T06:23:47.728Z,1015.04
2017-03-08T06:24:56.805Z,1015.03
2017-03-08T06:26:05.933Z,1015.03
2017-03-08T06:27:15.407Z,1015.03
2017-03-08T06:28:24.109Z,1015
2017-03-08T06:29:33.232Z,1014.89
2017-03-08T06:30:43.051Z,1014.87
2017-03-08T06:31:52.501Z,1014.88
2017-03-08T06:33:01.956Z,1014.75
2017-03-08T06:34:11.786Z,1014.69
2017-03-08T06:35:20.474Z,1014.71
2017-03-08T06:36:29.912Z,1014.63
2017-03-08T06:37:38.602Z,1014.63
2017-03-08T06:38:48.056Z,1014.53
2017-03-08T06:39:57.513Z,1014.54
2017-03-08T06:41:07.367Z,1014.47
2017-03-08T06:42:17.187Z,1014.43
2017-03-08T06:43:26.266Z,1014.51
2017-03-08T06:44:35.377Z,1014.44
2017-03-08T06:45:44.862Z,1014.47
2017-03-08T06:46:53.558Z,1014.46
2017-03-08T06:48:03.018Z,1014.42
2017-03-08T06:49:12.469Z,1014.41
2017-03-08T06:50:21.953Z,1014.28
2017-03-08T06:51:31.068Z,1014.29
2017-03-08T06:52:39.765Z,1014.19
2017-03-08T06:53:49.230Z,1014.16
2017-03-08T06:54:59.114Z,1014.11
2017-03-08T06:56:08.576Z,1014.08
2017-03-08T06:57:18.032Z,1014.05
2017-03-08T06:58:27.479Z,1014.02
2017-03-08T06:59:36.936Z,1014.06
2017-03-08T07:00:46.770Z,1014.07
2017-03-08T07:01:56.231Z,1014.12
2017-03-08T07:03:06.067Z,1014.13
2017-03-08T07:04:15.617Z,1014.16
2017-03-08T07:05:24.695Z,1014.07
2017-03-08T07:06:33.821Z,1014.09
2017-03-08T07:07:43.671Z,1014.06
2017-03-08T07:08:53.130Z,1014.07
2017-03-08T07:10:03.398Z,1014.06
2017-03-08T07:11:13.267Z,1014.07
2017-03-08T07:12:22.770Z,1013.99
2017-03-08T07:13:31.841Z,1013.97
2017-03-08T07:14:41.318Z,1014.03
2017-03-08T07:15:50.388Z,1014
2017-03-08T07:16:59.076Z,1013.94
2017-03-08T07:18:08.536Z,1014.02
2017-03-08T07:19:17.995Z,1013.97
2017-03-08T07:20:26.691Z,1013.96
2017-03-08T07:21:36.145Z,1013.89
2017-03-08T07:22:44.838Z,1013.87
2017-03-08T07:23:53.904Z,1013.93
2017-03-08T07:25:03.727Z,1013.93
2017-03-08T07:26:12.808Z,1013.89
2017-03-08T07:27:22.263Z,1013.92
2017-03-08T07:28:32.107Z,1013.96
2017-03-08T07:29:41.574Z,1013.96
2017-03-08T07:30:51.063Z,1013.96
2017-03-08T07:32:00.175Z,1013.95
2017-03-08T07:33:10.014Z,1013.88
2017-03-08T07:34:19.840Z,1013.88
2017-03-08T07:35:28.913Z,1013.87
2017-03-08T07:36:37.620Z,1013.84
2017-03-08T07:37:46.708Z,1013.82
2017-03-08T07:38:55.767Z,1013.75
2017-03-08T07:40:05.593Z,1013.71
2017-03-08T07:41:15.460Z,1013.62
2017-03-08T07:42:24.930Z,1013.69
2017-03-08T07:43:34.772Z,1013.66
2017-03-08T07:44:44.599Z,1013.68
2017-03-08T07:45:53.666Z,1013.68
2017-03-08T07:47:02.744Z,1013.65
2017-03-08T07:48:12.215Z,1013.56
2017-03-08T07:49:22.046Z,1013.6
2017-03-08T07:50:31.493Z,1013.7
2017-03-08T07:51:41.720Z,1013.64
2017-03-08T07:52:51.192Z,1013.6
2017-03-08T07:53:59.910Z,1013.72
2017-03-08T07:55:09.758Z,1013.72
2017-03-08T07:56:19.227Z,1013.68
2017-03-08T07:57:28.682Z,1013.74
2017-03-08T07:58:37.783Z,1013.75
2017-03-08T07:59:47.270Z,1013.66
2017-03-08T08:00:56.349Z,1013.65
2017-03-08T08:02:05.054Z,1013.59
2017-03-08T08:03:14.513Z,1013.51
2017-03-08T08:04:24.393Z,1013.58
2017-03-08T08:05:34.230Z,1013.55
2017-03-08T08:06:43.304Z,1013.54
2017-03-08T08:07:52.758Z,1013.44
2017-03-08T08:09:02.222Z,1013.51
2017-03-08T08:10:12.075Z,1013.45
2017-03-08T08:11:21.158Z,1013.48
2017-03-08T08:12:30.635Z,1013.5
2017-03-08T08:13:40.136Z,1013.4
2017-03-08T08:14:49.982Z,1013.44
2017-03-08T08:15:59.078Z,1013.45
2017-03-08T08:17:08.542Z,1013.51
2017-03-08T08:18:17.623Z,1013.49
2017-03-08T08:19:27.874Z,1013.53
2017-03-08T08:20:37.344Z,1013.54
2017-03-08T08:21:46.427Z,1013.56
2017-03-08T08:22:55.127Z,1013.45
2017-03-08T08:24:04.597Z,1013.38
2017-03-08T08:25:14.453Z,1013.46
2017-03-08T08:26:24.332Z,1013.51
2017-03-08T08:27:34.161Z,1013.42
2017-03-08T08:28:43.613Z,1013.37
2017-03-08T08:29:53.054Z,1013.37
2017-03-08T08:31:01.755Z,1013.4
2017-03-08T08:32:11.579Z,1013.36
2017-03-08T08:33:21.031Z,1013.35
2017-03-08T08:34:30.883Z,1013.34
2017-03-08T08:35:39.967Z,1013.32
2017-03-08T08:36:49.421Z,1013.37
2017-03-08T08:37:58.491Z,1013.35
2017-03-08T08:39:07.205Z,1013.4
2017-03-08T08:40:17.795Z,1013.35
2017-03-08T08:41:28.030Z,1013.37
2017-03-08T08:42:37.866Z,1013.33
2017-03-08T08:43:47.319Z,1013.35
2017-03-08T08:44:56.753Z,1013.32
2017-03-08T08:46:06.591Z,1013.33
2017-03-08T08:47:15.666Z,1013.29
2017-03-08T08:48:25.539Z,1013.24
2017-03-08T08:49:34.986Z,1013.26
2017-03-08T08:50:44.438Z,1013.24
2017-03-08T08:51:53.885Z,1013.1
2017-03-08T08:53:02.951Z,1013.16
2017-03-08T08:54:12.393Z,1013.24
2017-03-08T08:55:22.225Z,1013.21
2017-03-08T08:56:32.075Z,1013.21
2017-03-08T08:57:41.910Z,1013.1
2017-03-08T08:58:51.359Z,1013.15
2017-03-08T09:00:00.433Z,1013.09
2017-03-08T09:01:09.512Z,1013.15
2017-03-08T09:02:18.985Z,1013.16
2017-03-08T09:03:28.077Z,1013.08
2017-03-08T09:04:37.928Z,1013.11
2017-03-08T09:05:47.771Z,1012.98
2017-03-08T09:06:57.243Z,1013.01
2017-03-08T09:08:06.717Z,1012.96
2017-03-08T09:09:15.412Z,1012.96
2017-03-08T09:10:24.086Z,1012.93
2017-03-08T09:11:33.524Z,1012.83
2017-03-08T09:12:43.006Z,1012.89
2017-03-08T09:13:52.079Z,1012.75
2017-03-08T09:15:01.148Z,1012.75
2017-03-08T09:16:11.014Z,1012.65
2017-03-08T09:17:20.853Z,1012.6
2017-03-08T09:18:30.992Z,1012.57
2017-03-08T09:19:41.464Z,1012.52
2017-03-08T09:20:50.953Z,1012.47
2017-03-08T09:21:59.635Z,1012.39
2017-03-08T09:23:41.572Z,1012.49
2017-03-08T09:24:50.659Z,1012.58
2017-03-08T09:25:59.734Z,1012.64
2017-03-08T09:27:08.818Z,1012.82
2017-03-08T09:28:17.515Z,1012.88
2017-03-08T09:29:26.757Z,1012.92
2017-03-08T09:30:36.586Z,1013
2017-03-08T09:31:45.665Z,1013.06
2017-03-08T09:32:55.501Z,1013.12
2017-03-08T09:34:05.351Z,1013.19
2017-03-08T09:35:14.831Z,1013.24
2017-03-08T09:36:24.328Z,1013.34
2017-03-08T09:37:33.035Z,1013.35
2017-03-08T09:38:41.724Z,1013.34
2017-03-08T09:39:50.803Z,1013.3
2017-03-08T09:41:00.269Z,1013.29
2017-03-08T09:42:09.733Z,1013.19
2017-03-08T09:43:19.562Z,1013.27
2017-03-08T09:44:28.272Z,1013.28
2017-03-08T09:45:37.726Z,1013.36
2017-03-08T09:46:47.209Z,1013.47
2017-03-08T09:47:56.308Z,1013.57
2017-03-08T09:49:05.798Z,1013.35
2017-03-08T09:50:15.243Z,1013.38
2017-03-08T09:51:24.317Z,1013.29
2017-03-08T09:52:33.402Z,1013.44
2017-03-08T09:53:42.460Z,1013.38
2017-03-08T09:54:51.940Z,1013.38
2017-03-08T09:56:01.012Z,1013.47
2017-03-08T09:57:10.085Z,1013.44
2017-03-08T09:58:19.569Z,1013.49
2017-03-08T09:59:28.281Z,1013.38
2017-03-08T10:00:37.732Z,1013.51
2017-03-08T10:01:46.818Z,1013.59
2017-03-08T10:02:57.040Z,1013.44
2017-03-08T10:04:06.134Z,1013.46
2017-03-08T10:05:14.855Z,1013.47
2017-03-08T10:06:24.303Z,1013.5
2017-03-08T10:07:33.774Z,1013.42
2017-03-08T10:08:43.241Z,1013.45
2017-03-08T10:09:52.311Z,1013.57
2017-03-08T10:11:01.390Z,1013.63
2017-03-08T10:12:11.246Z,1013.56
2017-03-08T10:13:20.323Z,1013.58
2017-03-08T10:14:29.400Z,1013.63
2017-03-08T10:15:38.473Z,1013.7
2017-03-08T10:16:47.550Z,1013.78
2017-03-08T10:17:57.402Z,1013.75
2017-03-08T10:19:07.255Z,1013.73
2017-03-08T10:20:17.083Z,1013.63
2017-03-08T10:21:26.163Z,1013.6
2017-03-08T10:22:35.260Z,1013.51
2017-03-08T10:23:45.157Z,1013.38
2017-03-08T10:24:55.421Z,1013.38
2017-03-08T10:26:05.302Z,1013.26
2017-03-08T10:27:15.537Z,1013.31
2017-03-08T10:28:24.234Z,1013.46
2017-03-08T10:29:33.686Z,1013.47
2017-03-08T10:30:43.144Z,1013.18
2017-03-08T10:31:51.857Z,1013.13
2017-03-08T10:33:00.936Z,1013.12
2017-03-08T10:34:10.801Z,1013.04
2017-03-08T10:35:20.236Z,1012.97
2017-03-08T10:36:29.758Z,1012.93
2017-03-08T10:37:39.205Z,1012.98
2017-03-08T10:38:48.687Z,1013.06
2017-03-08T10:39:57.776Z,1012.89
2017-03-08T10:41:06.846Z,1012.78
2017-03-08T10:42:15.928Z,1012.66
2017-03-08T10:43:24.997Z,1012.62
2017-03-08T10:44:34.083Z,1012.4
2017-03-08T10:45:43.940Z,1012.23
2017-03-08T10:46:53.397Z,1012.16
2017-03-08T10:48:02.728Z,1012.08
2017-03-08T10:49:11.811Z,1011.97
2017-03-08T10:50:20.903Z,1011.79
2017-03-08T10:51:30.062Z,1011.57
2017-03-08T10:52:39.545Z,1011.26
2017-03-08T10:53:49.384Z,1011.06
2017-03-08T10:54:59.213Z,1011.02
2017-03-08T10:56:08.696Z,1011.16
2017-03-08T10:57:18.529Z,1011.46
2017-03-08T10:58:27.987Z,1011.89
2017-03-08T10:59:37.049Z,1011.98
2017-03-08T11:00:46.156Z,1012.02
2017-03-08T11:01:56.381Z,1012.33
2017-03-08T11:03:05.839Z,1012.57
2017-03-08T11:04:15.700Z,1012.62
2017-03-08T11:05:25.145Z,1012.85
2017-03-08T11:06:34.606Z,1013.06
2017-03-08T11:07:44.821Z,1013.16
2017-03-08T11:08:54.665Z,1013.17
2017-03-08T11:10:04.516Z,1013.28
2017-03-08T11:11:15.126Z,1013.21
2017-03-08T11:12:24.981Z,1013.35
2017-03-08T11:13:35.207Z,1013.18
2017-03-08T11:14:45.041Z,1013.17
2017-03-08T11:15:54.888Z,1013.25
2017-03-08T11:17:05.497Z,1013.06
2017-03-08T11:18:14.566Z,1013.1
2017-03-08T11:19:24.399Z,1012.95
2017-03-08T11:20:33.846Z,1012.86
2017-03-08T11:21:42.947Z,1012.58
2017-03-08T11:22:53.171Z,1012.47
2017-03-08T11:24:03.000Z,1012.48
2017-03-08T11:25:13.201Z,1012.6
2017-03-08T11:26:21.880Z,1012.51
2017-03-08T11:27:32.117Z,1012.32
2017-03-08T11:28:41.566Z,1012.19
2017-03-08T11:29:51.417Z,1012.27
2017-03-08T11:31:00.884Z,1012.27
2017-03-08T11:32:11.087Z,1012.2
2017-03-08T11:33:20.936Z,1012.25
2017-03-08T11:34:30.392Z,1012.12
2017-03-08T11:35:40.638Z,1012.22
2017-03-08T11:36:50.493Z,1012.34
2017-03-08T11:38:00.363Z,1012.48
2017-03-08T11:39:10.583Z,1012.56
2017-03-08T11:40:20.025Z,1012.49
2017-03-08T11:41:29.864Z,1012.3
2017-03-08T11:42:39.338Z,1012.47
2017-03-08T11:43:48.798Z,1012.63
2017-03-08T11:44:57.479Z,1012.65
2017-03-08T11:46:07.339Z,1012.71
2017-03-08T11:47:16.410Z,1012.64
2017-03-08T11:48:25.516Z,1012.24
2017-03-08T11:49:34.996Z,1012.28
2017-03-08T11:50:44.850Z,1012.45
2017-03-08T11:51:53.919Z,1012.31
2017-03-08T11:53:03.001Z,1012.23
2017-03-08T11:54:12.842Z,1012.02
2017-03-08T11:55:22.680Z,1011.77
2017-03-08T11:56:31.758Z,1011.67
2017-03-08T11:57:41.215Z,1011.53
2017-03-08T11:58:50.679Z,1011.73
2017-03-08T12:00:00.535Z,1012.09
2017-03-08T12:01:09.998Z,1012.32
2017-03-08T12:02:20.247Z,1012.23
2017-03-08T12:03:29.320Z,1012.01
2017-03-08T12:04:38.771Z,1012.15
2017-03-08T12:05:48.235Z,1012.01
2017-03-08T12:06:57.701Z,1012.49
2017-03-08T12:08:06.802Z,1012.26
2017-03-08T12:09:17.003Z,1012.36
2017-03-08T12:10:26.070Z,1012.39
2017-03-08T12:11:35.144Z,1012.11
2017-03-08T12:12:44.224Z,1011.85
2017-03-08T12:13:53.298Z,1011.7
2017-03-08T12:15:02.753Z,1011.62
2017-03-08T12:16:12.206Z,1011.56
2017-03-08T12:17:21.355Z,1011.32
2017-03-08T12:18:30.852Z,1011.35
2017-03-08T12:19:39.944Z,1011.53
2017-03-08T12:20:48.686Z,1011.45
2017-03-08T12:21:57.782Z,1011.31
2017-03-08T12:23:07.236Z,1010.95
2017-03-08T12:24:16.737Z,1010.68
2017-03-08T12:25:26.226Z,1010.18
2017-03-08T12:26:35.672Z,1009.87
2017-03-08T12:27:44.357Z,1009.5
2017-03-08T12:28:53.822Z,1009.25
2017-03-08T12:30:02.902Z,1009.33
2017-03-08T12:31:12.375Z,1009.2
2017-03-08T12:32:22.770Z,1009.13
2017-03-08T12:33:31.952Z,1008.86
2017-03-08T12:34:41.042Z,1008.48
2017-03-08T12:35:49.727Z,1008.2
2017-03-08T12:36:59.178Z,1007.96
2017-03-08T12:38:08.245Z,1007.83
2017-03-08T12:39:17.302Z,1008.02
2017-03-08T12:40:26.757Z,1007.91
2017-03-08T12:41:36.195Z,1007.83
2017-03-08T12:42:45.252Z,1008.04
2017-03-08T12:43:54.724Z,1007.92
2017-03-08T12:45:04.195Z,1008.31
2017-03-08T12:46:13.649Z,1008.03
2017-03-08T12:47:23.115Z,1007.87
2017-03-08T12:48:32.974Z,1007.75
2017-03-08T12:49:42.060Z,1008.11
2017-03-08T12:50:51.138Z,1008.06
2017-03-08T12:52:00.967Z,1007.92
2017-03-08T12:53:10.780Z,1007.92
2017-03-08T12:54:20.624Z,1008.07
2017-03-08T12:55:29.309Z,1008.05
2017-03-08T12:56:39.528Z,1008.09
2017-03-08T12:57:48.210Z,1008.29
2017-03-08T12:58:57.655Z,1008.53
2017-03-08T13:00:07.481Z,1008.83
2017-03-08T13:01:16.174Z,1009.1
2017-03-08T13:02:25.628Z,1009.23
2017-03-08T13:03:35.123Z,1009.4
2017-03-08T13:04:44.187Z,1009.53
2017-03-08T13:05:54.329Z,1009.86
2017-03-08T13:07:04.178Z,1010.04
2017-03-08T13:08:12.878Z,1009.98
2017-03-08T13:09:21.573Z,1010.09
2017-03-08T13:10:30.634Z,1010.42
2017-03-08T13:11:39.721Z,1010.59
2017-03-08T13:12:48.773Z,1010.79
2017-03-08T13:13:57.858Z,1010.95
2017-03-08T13:15:07.309Z,1010.93
2017-03-08T13:16:16.767Z,1010.72
2017-03-08T13:17:26.251Z,1010.65
2017-03-08T13:18:35.692Z,1010.59
2017-03-08T13:19:45.151Z,1010.52
2017-03-08T13:20:54.222Z,1010.5
2017-03-08T13:22:03.335Z,1010.41
2017-03-08T13:23:12.411Z,1010.24
2017-03-08T13:24:21.879Z,1010.2
2017-03-08T13:25:30.572Z,1010.18
2017-03-08T13:26:39.730Z,1010.13
2017-03-08T13:27:48.809Z,1010.07
2017-03-08T13:28:58.250Z,1009.98
2017-03-08T13:30:07.710Z,1009.88
2017-03-08T13:31:17.196Z,1009.78
2017-03-08T13:32:27.425Z,1009.53
2017-03-08T13:33:36.885Z,1009.38
2017-03-08T13:34:46.396Z,1009.07
2017-03-08T13:35:55.537Z,1008.91
2017-03-08T13:37:04.608Z,1008.78
2017-03-08T13:38:14.441Z,1008.83
2017-03-08T13:39:23.124Z,1009
2017-03-08T13:40:31.817Z,1009.05
2017-03-08T13:41:40.882Z,1009.16
2017-03-08T13:42:49.574Z,1009.02
2017-03-08T13:43:58.630Z,1008.93
2017-03-08T13:45:08.861Z,1008.77
2017-03-08T13:46:17.920Z,1008.8
2017-03-08T13:47:27.151Z,1008.87
2017-03-08T13:48:36.996Z,1008.77
2017-03-08T13:49:46.840Z,1008.7
2017-03-08T13:50:56.299Z,1008.61
2017-03-08T13:52:05.757Z,1008.36
2017-03-08T13:53:14.836Z,1008.31
2017-03-08T13:54:24.674Z,1008.22
2017-03-08T13:55:33.362Z,1008.19
2017-03-08T13:56:42.425Z,1008.23
2017-03-08T13:57:51.898Z,1008.43
2017-03-08T13:59:00.958Z,1008.75
2017-03-08T14:00:10.838Z,1009.14
2017-03-08T14:01:20.312Z,1009.25
2017-03-08T14:02:30.148Z,1009.2
2017-03-08T14:03:39.591Z,1009.05